sensor_id;sensor_type;location;lat;lon;timestamp;temperature;humidity
27114;DHT22;14648;49.730;8.614;2022-09-09T00:01:20;19.50;55.90
27114;DHT22;14648;49.730;8.614;2022-09-09T00:04:29;19.50;56.20
27114;DHT22;14648;49.730;8.614;2022-09-09T00:07:30;19.50;56.10
27114;DHT22;14648;49.730;8.614;2022-09-09T00:13:18;19.50;56.00
27114;DHT22;14648;49.730;8.614;2022-09-09T00:16:04;19.60;55.90
27114;DHT22;14648;49.730;8.614;2022-09-09T00:19:12;19.60;56.00
27114;DHT22;14648;49.730;8.614;2022-09-09T00:24:26;19.60;55.90
27114;DHT22;14648;49.730;8.614;2022-09-09T00:27:08;19.60;56.00
27114;DHT22;14648;49.730;8.614;2022-09-09T00:29:47;19.60;55.90
27114;DHT22;14648;49.730;8.614;2022-09-09T00:32:20;19.60;55.90
27114;DHT22;14648;49.730;8.614;2022-09-09T00:35:13;19.60;55.90
27114;DHT22;14648;49.730;8.614;2022-09-09T00:37:42;19.70;56.00
27114;DHT22;14648;49.730;8.614;2022-09-09T00:40:32;19.60;55.80
27114;DHT22;14648;49.730;8.614;2022-09-09T00:43:16;19.70;55.90
27114;DHT22;14648;49.730;8.614;2022-09-09T00:46:17;19.70;56.00
27114;DHT22;14648;49.730;8.614;2022-09-09T00:51:43;19.70;55.90
27114;DHT22;14648;49.730;8.614;2022-09-09T01:05:49;19.70;55.80
27114;DHT22;14648;49.730;8.614;2022-09-09T01:11:09;19.70;55.80
27114;DHT22;14648;49.730;8.614;2022-09-09T01:13:45;19.60;55.70
27114;DHT22;14648;49.730;8.614;2022-09-09T01:16:13;19.70;55.90
27114;DHT22;14648;49.730;8.614;2022-09-09T01:18:44;19.60;55.80
27114;DHT22;14648;49.730;8.614;2022-09-09T01:21:31;19.60;56.00
27114;DHT22;14648;49.730;8.614;2022-09-09T01:26:45;19.50;56.20
27114;DHT22;14648;49.730;8.614;2022-09-09T01:29:13;19.50;56.40
27114;DHT22;14648;49.730;8.614;2022-09-09T01:32:36;19.40;56.50
27114;DHT22;14648;49.730;8.614;2022-09-09T01:34:48;19.40;56.50
27114;DHT22;14648;49.730;8.614;2022-09-09T01:37:13;19.40;56.60
27114;DHT22;14648;49.730;8.614;2022-09-09T01:39:41;19.40;56.70
27114;DHT22;14648;49.730;8.614;2022-09-09T01:42:10;19.30;56.80
27114;DHT22;14648;49.730;8.614;2022-09-09T01:44:38;19.30;56.90
27114;DHT22;14648;49.730;8.614;2022-09-09T01:47:04;19.30;57.00
27114;DHT22;14648;49.730;8.614;2022-09-09T01:49:31;19.30;57.10
27114;DHT22;14648;49.730;8.614;2022-09-09T01:51:58;19.30;57.20
27114;DHT22;14648;49.730;8.614;2022-09-09T01:54:28;19.30;57.30
27114;DHT22;14648;49.730;8.614;2022-09-09T01:57:18;19.20;57.30
27114;DHT22;14648;49.730;8.614;2022-09-09T02:00:08;19.20;57.50
27114;DHT22;14648;49.730;8.614;2022-09-09T02:02:43;19.20;57.50
27114;DHT22;14648;49.730;8.614;2022-09-09T02:05:36;19.20;57.60
27114;DHT22;14648;49.730;8.614;2022-09-09T02:08:17;19.10;57.70
27114;DHT22;14648;49.730;8.614;2022-09-09T02:11:13;19.10;57.90
27114;DHT22;14648;49.730;8.614;2022-09-09T02:13:48;19.10;58.10
27114;DHT22;14648;49.730;8.614;2022-09-09T02:19:25;19.00;58.30
27114;DHT22;14648;49.730;8.614;2022-09-09T02:21:55;18.90;58.40
27114;DHT22;14648;49.730;8.614;2022-09-09T02:24:23;18.90;58.50
27114;DHT22;14648;49.730;8.614;2022-09-09T02:26:52;18.90;58.60
27114;DHT22;14648;49.730;8.614;2022-09-09T02:29:39;18.90;58.80
27114;DHT22;14648;49.730;8.614;2022-09-09T02:32:11;18.80;58.80
27114;DHT22;14648;49.730;8.614;2022-09-09T02:34:47;18.80;58.90
27114;DHT22;14648;49.730;8.614;2022-09-09T02:37:24;18.90;59.10
27114;DHT22;14648;49.730;8.614;2022-09-09T02:39:54;18.80;59.10
27114;DHT22;14648;49.730;8.614;2022-09-09T02:42:20;18.80;59.10
27114;DHT22;14648;49.730;8.614;2022-09-09T02:44:46;18.80;59.20
27114;DHT22;14648;49.730;8.614;2022-09-09T02:50:20;18.80;59.40
27114;DHT22;14648;49.730;8.614;2022-09-09T02:55:47;18.80;59.40
27114;DHT22;14648;49.730;8.614;2022-09-09T02:58:16;18.80;59.50
27114;DHT22;14648;49.730;8.614;2022-09-09T03:00:45;18.80;59.40
27114;DHT22;14648;49.730;8.614;2022-09-09T03:03:13;18.80;59.50
27114;DHT22;14648;49.730;8.614;2022-09-09T03:05:39;18.80;59.60
27114;DHT22;14648;49.730;8.614;2022-09-09T03:08:06;18.70;59.70
27114;DHT22;14648;49.730;8.614;2022-09-09T03:10:32;18.70;59.90
27114;DHT22;14648;49.730;8.614;2022-09-09T03:12:59;18.70;60.10
27114;DHT22;14648;49.730;8.614;2022-09-09T03:15:25;18.60;60.20
27114;DHT22;14648;49.730;8.614;2022-09-09T03:17:54;18.60;60.20
27114;DHT22;14648;49.730;8.614;2022-09-09T03:20:20;18.60;60.30
27114;DHT22;14648;49.730;8.614;2022-09-09T03:22:46;18.60;60.50
27114;DHT22;14648;49.730;8.614;2022-09-09T03:25:11;18.50;60.60
27114;DHT22;14648;49.730;8.614;2022-09-09T03:27:37;18.50;60.60
27114;DHT22;14648;49.730;8.614;2022-09-09T03:30:03;18.50;60.70
27114;DHT22;14648;49.730;8.614;2022-09-09T03:32:31;18.50;60.80
27114;DHT22;14648;49.730;8.614;2022-09-09T03:34:57;18.50;60.90
27114;DHT22;14648;49.730;8.614;2022-09-09T03:37:22;18.50;61.00
27114;DHT22;14648;49.730;8.614;2022-09-09T03:39:48;18.40;61.00
27114;DHT22;14648;49.730;8.614;2022-09-09T03:42:14;18.40;61.10
27114;DHT22;14648;49.730;8.614;2022-09-09T03:44:44;18.40;61.20
27114;DHT22;14648;49.730;8.614;2022-09-09T03:47:19;18.40;61.30
27114;DHT22;14648;49.730;8.614;2022-09-09T03:49:47;18.40;61.40
27114;DHT22;14648;49.730;8.614;2022-09-09T03:52:14;18.40;61.40
27114;DHT22;14648;49.730;8.614;2022-09-09T03:54:41;18.30;61.50
27114;DHT22;14648;49.730;8.614;2022-09-09T03:57:08;18.40;61.50
27114;DHT22;14648;49.730;8.614;2022-09-09T03:59:35;18.40;61.50
27114;DHT22;14648;49.730;8.614;2022-09-09T04:02:01;18.40;61.50
27114;DHT22;14648;49.730;8.614;2022-09-09T04:04:27;18.30;61.60
27114;DHT22;14648;49.730;8.614;2022-09-09T04:06:53;18.30;61.60
27114;DHT22;14648;49.730;8.614;2022-09-09T04:09:19;18.30;61.70
27114;DHT22;14648;49.730;8.614;2022-09-09T04:11:45;18.30;61.80
27114;DHT22;14648;49.730;8.614;2022-09-09T04:14:11;18.30;61.80
27114;DHT22;14648;49.730;8.614;2022-09-09T04:16:38;18.30;61.90
27114;DHT22;14648;49.730;8.614;2022-09-09T04:19:04;18.30;61.90
27114;DHT22;14648;49.730;8.614;2022-09-09T04:21:33;18.20;61.90
27114;DHT22;14648;49.730;8.614;2022-09-09T04:23:58;18.20;62.10
27114;DHT22;14648;49.730;8.614;2022-09-09T04:26:24;18.20;62.20
27114;DHT22;14648;49.730;8.614;2022-09-09T04:28:50;18.10;62.30
27114;DHT22;14648;49.730;8.614;2022-09-09T04:31:21;18.10;62.40
27114;DHT22;14648;49.730;8.614;2022-09-09T04:33:52;18.00;62.60
27114;DHT22;14648;49.730;8.614;2022-09-09T04:36:18;18.00;62.70
27114;DHT22;14648;49.730;8.614;2022-09-09T04:38:45;18.00;62.50
27114;DHT22;14648;49.730;8.614;2022-09-09T04:41:11;17.90;62.70
27114;DHT22;14648;49.730;8.614;2022-09-09T04:43:38;17.90;62.80
27114;DHT22;14648;49.730;8.614;2022-09-09T04:46:05;17.90;62.90
27114;DHT22;14648;49.730;8.614;2022-09-09T04:48:31;17.80;62.90
27114;DHT22;14648;49.730;8.614;2022-09-09T04:51:00;17.90;63.00
27114;DHT22;14648;49.730;8.614;2022-09-09T04:53:27;17.90;63.00
27114;DHT22;14648;49.730;8.614;2022-09-09T04:56:01;17.80;62.90
27114;DHT22;14648;49.730;8.614;2022-09-09T04:58:28;17.80;63.10
27114;DHT22;14648;49.730;8.614;2022-09-09T05:00:54;17.80;63.00
27114;DHT22;14648;49.730;8.614;2022-09-09T05:03:19;17.80;63.10
27114;DHT22;14648;49.730;8.614;2022-09-09T05:05:45;17.80;63.10
27114;DHT22;14648;49.730;8.614;2022-09-09T05:08:11;17.80;63.10
27114;DHT22;14648;49.730;8.614;2022-09-09T05:10:38;17.80;63.10
27114;DHT22;14648;49.730;8.614;2022-09-09T05:13:05;17.80;63.20
27114;DHT22;14648;49.730;8.614;2022-09-09T05:15:31;17.80;63.30
27114;DHT22;14648;49.730;8.614;2022-09-09T05:17:58;17.80;63.40
27114;DHT22;14648;49.730;8.614;2022-09-09T05:20:26;17.80;63.40
27114;DHT22;14648;49.730;8.614;2022-09-09T05:22:56;17.80;63.50
27114;DHT22;14648;49.730;8.614;2022-09-09T05:25:22;17.70;63.60
27114;DHT22;14648;49.730;8.614;2022-09-09T05:27:51;17.80;63.50
27114;DHT22;14648;49.730;8.614;2022-09-09T05:30:17;17.80;63.60
27114;DHT22;14648;49.730;8.614;2022-09-09T05:32:44;17.80;63.60
27114;DHT22;14648;49.730;8.614;2022-09-09T05:35:10;17.80;63.50
27114;DHT22;14648;49.730;8.614;2022-09-09T05:37:35;17.70;63.60
27114;DHT22;14648;49.730;8.614;2022-09-09T05:40:01;17.70;63.70
27114;DHT22;14648;49.730;8.614;2022-09-09T05:42:31;17.70;63.80
27114;DHT22;14648;49.730;8.614;2022-09-09T05:44:57;17.70;63.90
27114;DHT22;14648;49.730;8.614;2022-09-09T05:47:23;17.70;63.90
27114;DHT22;14648;49.730;8.614;2022-09-09T05:49:49;17.70;63.70
27114;DHT22;14648;49.730;8.614;2022-09-09T05:52:14;17.80;63.80
27114;DHT22;14648;49.730;8.614;2022-09-09T05:54:40;17.80;63.80
27114;DHT22;14648;49.730;8.614;2022-09-09T05:57:07;17.80;63.80
27114;DHT22;14648;49.730;8.614;2022-09-09T05:59:32;17.80;63.90
27114;DHT22;14648;49.730;8.614;2022-09-09T06:01:58;17.80;63.80
27114;DHT22;14648;49.730;8.614;2022-09-09T06:04:24;17.90;63.90
27114;DHT22;14648;49.730;8.614;2022-09-09T06:06:50;17.80;63.80
27114;DHT22;14648;49.730;8.614;2022-09-09T06:09:16;17.90;63.80
27114;DHT22;14648;49.730;8.614;2022-09-09T06:11:42;17.80;63.70
27114;DHT22;14648;49.730;8.614;2022-09-09T06:14:08;17.80;63.90
27114;DHT22;14648;49.730;8.614;2022-09-09T06:16:35;17.80;63.90
27114;DHT22;14648;49.730;8.614;2022-09-09T06:19:03;17.90;64.20
27114;DHT22;14648;49.730;8.614;2022-09-09T06:21:33;17.90;64.20
27114;DHT22;14648;49.730;8.614;2022-09-09T06:24:01;17.90;64.10
27114;DHT22;14648;49.730;8.614;2022-09-09T06:26:30;18.00;64.80
27114;DHT22;14648;49.730;8.614;2022-09-09T06:28:57;18.00;64.10
27114;DHT22;14648;49.730;8.614;2022-09-09T06:31:26;18.00;64.10
27114;DHT22;14648;49.730;8.614;2022-09-09T06:33:56;18.00;64.10
27114;DHT22;14648;49.730;8.614;2022-09-09T06:36:28;18.00;64.10
27114;DHT22;14648;49.730;8.614;2022-09-09T06:38:56;18.10;64.30
27114;DHT22;14648;49.730;8.614;2022-09-09T06:41:24;18.10;64.30
27114;DHT22;14648;49.730;8.614;2022-09-09T06:43:54;18.10;64.30
27114;DHT22;14648;49.730;8.614;2022-09-09T06:46:27;18.20;64.30
27114;DHT22;14648;49.730;8.614;2022-09-09T06:48:54;18.20;64.20
27114;DHT22;14648;49.730;8.614;2022-09-09T06:51:23;18.20;64.30
27114;DHT22;14648;49.730;8.614;2022-09-09T06:53:58;18.30;64.30
27114;DHT22;14648;49.730;8.614;2022-09-09T06:56:33;18.30;64.40
27114;DHT22;14648;49.730;8.614;2022-09-09T06:59:04;18.40;64.30
27114;DHT22;14648;49.730;8.614;2022-09-09T07:01:36;18.40;64.20
27114;DHT22;14648;49.730;8.614;2022-09-09T07:04:04;18.40;64.20
27114;DHT22;14648;49.730;8.614;2022-09-09T07:06:35;18.50;64.30
27114;DHT22;14648;49.730;8.614;2022-09-09T07:09:10;18.50;64.30
27114;DHT22;14648;49.730;8.614;2022-09-09T07:11:43;18.50;64.20
27114;DHT22;14648;49.730;8.614;2022-09-09T07:14:10;18.60;64.20
27114;DHT22;14648;49.730;8.614;2022-09-09T07:16:44;18.60;64.10
27114;DHT22;14648;49.730;8.614;2022-09-09T07:19:12;18.60;64.00
27114;DHT22;14648;49.730;8.614;2022-09-09T07:21:39;18.70;64.10
27114;DHT22;14648;49.730;8.614;2022-09-09T07:24:06;18.70;63.90
27114;DHT22;14648;49.730;8.614;2022-09-09T07:26:37;18.70;64.00
27114;DHT22;14648;49.730;8.614;2022-09-09T07:29:04;18.70;64.10
27114;DHT22;14648;49.730;8.614;2022-09-09T07:31:32;18.70;63.90
27114;DHT22;14648;49.730;8.614;2022-09-09T07:34:00;18.70;63.90
27114;DHT22;14648;49.730;8.614;2022-09-09T07:36:33;18.80;63.90
27114;DHT22;14648;49.730;8.614;2022-09-09T07:39:03;18.80;64.00
27114;DHT22;14648;49.730;8.614;2022-09-09T07:41:40;18.80;64.10
27114;DHT22;14648;49.730;8.614;2022-09-09T07:44:14;18.90;64.20
27114;DHT22;14648;49.730;8.614;2022-09-09T07:46:42;18.90;64.30
27114;DHT22;14648;49.730;8.614;2022-09-09T07:49:09;18.90;64.20
27114;DHT22;14648;49.730;8.614;2022-09-09T07:51:38;19.00;64.40
27114;DHT22;14648;49.730;8.614;2022-09-09T07:54:08;19.10;64.30
27114;DHT22;14648;49.730;8.614;2022-09-09T07:56:37;19.20;64.20
27114;DHT22;14648;49.730;8.614;2022-09-09T07:59:03;19.20;63.90
27114;DHT22;14648;49.730;8.614;2022-09-09T08:01:37;19.30;63.80
27114;DHT22;14648;49.730;8.614;2022-09-09T08:04:25;19.30;63.50
27114;DHT22;14648;49.730;8.614;2022-09-09T08:06:56;19.40;63.30
27114;DHT22;14648;49.730;8.614;2022-09-09T08:09:23;19.40;63.10
27114;DHT22;14648;49.730;8.614;2022-09-09T08:11:52;19.50;63.10
27114;DHT22;14648;49.730;8.614;2022-09-09T08:14:19;19.50;62.80
27114;DHT22;14648;49.730;8.614;2022-09-09T08:16:47;19.60;62.60
27114;DHT22;14648;49.730;8.614;2022-09-09T08:19:14;19.60;62.40
27114;DHT22;14648;49.730;8.614;2022-09-09T08:21:44;19.70;62.40
27114;DHT22;14648;49.730;8.614;2022-09-09T08:24:11;19.80;61.80
27114;DHT22;14648;49.730;8.614;2022-09-09T08:26:44;19.80;61.50
27114;DHT22;14648;49.730;8.614;2022-09-09T08:29:12;19.80;61.30
27114;DHT22;14648;49.730;8.614;2022-09-09T08:34:09;19.80;61.80
27114;DHT22;14648;49.730;8.614;2022-09-09T08:36:37;19.90;61.00
27114;DHT22;14648;49.730;8.614;2022-09-09T08:39:06;20.00;61.00
27114;DHT22;14648;49.730;8.614;2022-09-09T08:42:02;20.00;60.80
27114;DHT22;14648;49.730;8.614;2022-09-09T08:47:25;20.10;60.80
27114;DHT22;14648;49.730;8.614;2022-09-09T08:52:53;20.20;60.40
27114;DHT22;14648;49.730;8.614;2022-09-09T08:58:23;20.30;60.60
27114;DHT22;14648;49.730;8.614;2022-09-09T09:09:28;20.30;59.60
27114;DHT22;14648;49.730;8.614;2022-09-09T09:12:15;20.30;59.50
27114;DHT22;14648;49.730;8.614;2022-09-09T09:14:43;20.30;59.40
27114;DHT22;14648;49.730;8.614;2022-09-09T09:17:13;20.30;59.70
27114;DHT22;14648;49.730;8.614;2022-09-09T09:19:41;20.50;59.90
27114;DHT22;14648;49.730;8.614;2022-09-09T09:22:24;20.60;59.60
27114;DHT22;14648;49.730;8.614;2022-09-09T09:30:26;21.00;59.50
27114;DHT22;14648;49.730;8.614;2022-09-09T09:32:59;21.20;58.90
27114;DHT22;14648;49.730;8.614;2022-09-09T09:35:27;21.20;58.70
27114;DHT22;14648;49.730;8.614;2022-09-09T09:37:53;21.10;58.70
27114;DHT22;14648;49.730;8.614;2022-09-09T09:40:21;21.00;58.90
27114;DHT22;14648;49.730;8.614;2022-09-09T09:43:00;20.90;59.30
27114;DHT22;14648;49.730;8.614;2022-09-09T09:45:32;21.00;59.20
27114;DHT22;14648;49.730;8.614;2022-09-09T09:48:09;20.90;59.40
27114;DHT22;14648;49.730;8.614;2022-09-09T09:50:39;20.80;59.60
27114;DHT22;14648;49.730;8.614;2022-09-09T09:53:22;20.70;60.10
27114;DHT22;14648;49.730;8.614;2022-09-09T09:56:01;20.70;60.60
27114;DHT22;14648;49.730;8.614;2022-09-09T09:58:35;20.80;61.30
27114;DHT22;14648;49.730;8.614;2022-09-09T10:01:28;20.80;61.80
27114;DHT22;14648;49.730;8.614;2022-09-09T10:04:22;21.00;62.40
27114;DHT22;14648;49.730;8.614;2022-09-09T10:06:51;21.20;61.90
27114;DHT22;14648;49.730;8.614;2022-09-09T10:09:29;21.50;60.60
27114;DHT22;14648;49.730;8.614;2022-09-09T10:18:25;21.50;58.90
27114;DHT22;14648;49.730;8.614;2022-09-09T10:30:18;21.60;57.30
27114;DHT22;14648;49.730;8.614;2022-09-09T10:38:13;22.10;55.50
27114;DHT22;14648;49.730;8.614;2022-09-09T10:40:50;22.30;55.30
27114;DHT22;14648;49.730;8.614;2022-09-09T10:50:25;22.50;54.10
27114;DHT22;14648;49.730;8.614;2022-09-09T10:53:00;22.60;54.30
27114;DHT22;14648;49.730;8.614;2022-09-09T10:55:37;22.80;53.70
27114;DHT22;14648;49.730;8.614;2022-09-09T10:58:12;22.90;53.00
27114;DHT22;14648;49.730;8.614;2022-09-09T11:00:53;23.00;52.70
27114;DHT22;14648;49.730;8.614;2022-09-09T11:03:26;23.00;52.00
27114;DHT22;14648;49.730;8.614;2022-09-09T11:06:06;23.00;52.00
27114;DHT22;14648;49.730;8.614;2022-09-09T11:08:38;23.10;51.40
27114;DHT22;14648;49.730;8.614;2022-09-09T11:11:27;23.10;50.90
27114;DHT22;14648;49.730;8.614;2022-09-09T11:14:09;23.10;50.70
27114;DHT22;14648;49.730;8.614;2022-09-09T11:16:57;23.30;50.60
27114;DHT22;14648;49.730;8.614;2022-09-09T11:19:43;23.50;50.40
27114;DHT22;14648;49.730;8.614;2022-09-09T11:22:30;23.70;49.90
27114;DHT22;14648;49.730;8.614;2022-09-09T11:30:54;24.00;49.50
27114;DHT22;14648;49.730;8.614;2022-09-09T11:42:18;24.30;49.00
27114;DHT22;14648;49.730;8.614;2022-09-09T11:44:46;24.20;48.80
27114;DHT22;14648;49.730;8.614;2022-09-09T11:47:30;24.20;48.80
27114;DHT22;14648;49.730;8.614;2022-09-09T11:52:42;24.00;48.00
27114;DHT22;14648;49.730;8.614;2022-09-09T11:55:29;23.90;48.10
27114;DHT22;14648;49.730;8.614;2022-09-09T11:58:06;23.80;47.90
27114;DHT22;14648;49.730;8.614;2022-09-09T12:06:19;23.40;48.20
27114;DHT22;14648;49.730;8.614;2022-09-09T12:09:06;23.30;47.60
27114;DHT22;14648;49.730;8.614;2022-09-09T12:11:37;23.10;47.30
27114;DHT22;14648;49.730;8.614;2022-09-09T12:14:03;22.90;47.60
27114;DHT22;14648;49.730;8.614;2022-09-09T12:16:35;22.90;48.30
27114;DHT22;14648;49.730;8.614;2022-09-09T12:24:37;22.80;47.90
27114;DHT22;14648;49.730;8.614;2022-09-09T12:27:31;22.70;48.40
27114;DHT22;14648;49.730;8.614;2022-09-09T12:30:10;22.80;48.60
27114;DHT22;14648;49.730;8.614;2022-09-09T12:32:37;22.80;48.60
27114;DHT22;14648;49.730;8.614;2022-09-09T12:40:26;22.60;48.70
27114;DHT22;14648;49.730;8.614;2022-09-09T12:42:53;22.60;48.70
27114;DHT22;14648;49.730;8.614;2022-09-09T12:45:24;22.60;48.30
27114;DHT22;14648;49.730;8.614;2022-09-09T12:47:58;22.60;47.90
27114;DHT22;14648;49.730;8.614;2022-09-09T12:50:46;22.50;47.60
27114;DHT22;14648;49.730;8.614;2022-09-09T12:53:30;22.50;47.50
27114;DHT22;14648;49.730;8.614;2022-09-09T12:56:06;22.60;47.00
27114;DHT22;14648;49.730;8.614;2022-09-09T12:58:34;22.70;47.30
27114;DHT22;14648;49.730;8.614;2022-09-09T13:01:04;22.70;47.40
27114;DHT22;14648;49.730;8.614;2022-09-09T13:03:31;22.70;47.30
27114;DHT22;14648;49.730;8.614;2022-09-09T13:06:10;22.60;47.40
27114;DHT22;14648;49.730;8.614;2022-09-09T13:08:38;22.60;47.40
27114;DHT22;14648;49.730;8.614;2022-09-09T13:11:09;22.50;47.50
27114;DHT22;14648;49.730;8.614;2022-09-09T13:13:41;22.40;47.30
27114;DHT22;14648;49.730;8.614;2022-09-09T13:16:26;22.40;47.30
27114;DHT22;14648;49.730;8.614;2022-09-09T13:19:24;22.40;47.30
27114;DHT22;14648;49.730;8.614;2022-09-09T13:21:53;22.30;47.60
27114;DHT22;14648;49.730;8.614;2022-09-09T13:24:29;22.30;47.90
27114;DHT22;14648;49.730;8.614;2022-09-09T13:26:58;22.20;48.40
27114;DHT22;14648;49.730;8.614;2022-09-09T13:29:32;22.20;49.20
27114;DHT22;14648;49.730;8.614;2022-09-09T13:32:17;22.00;50.00
27114;DHT22;14648;49.730;8.614;2022-09-09T13:34:58;21.80;51.00
27114;DHT22;14648;49.730;8.614;2022-09-09T13:37:36;21.60;51.30
27114;DHT22;14648;49.730;8.614;2022-09-09T13:40:04;21.50;51.80
27114;DHT22;14648;49.730;8.614;2022-09-09T13:42:39;21.40;52.00
27114;DHT22;14648;49.730;8.614;2022-09-09T13:45:06;21.40;52.40
27114;DHT22;14648;49.730;8.614;2022-09-09T13:47:41;21.30;52.50
27114;DHT22;14648;49.730;8.614;2022-09-09T13:50:30;21.20;52.30
27114;DHT22;14648;49.730;8.614;2022-09-09T13:52:58;21.00;52.80
27114;DHT22;14648;49.730;8.614;2022-09-09T13:55:28;21.00;53.60
27114;DHT22;14648;49.730;8.614;2022-09-09T13:57:58;21.00;54.40
27114;DHT22;14648;49.730;8.614;2022-09-09T14:00:27;21.10;54.80
27114;DHT22;14648;49.730;8.614;2022-09-09T14:02:55;21.00;54.80
27114;DHT22;14648;49.730;8.614;2022-09-09T14:05:21;20.90;55.10
27114;DHT22;14648;49.730;8.614;2022-09-09T14:07:47;20.80;55.50
27114;DHT22;14648;49.730;8.614;2022-09-09T14:10:14;20.80;56.00
27114;DHT22;14648;49.730;8.614;2022-09-09T14:12:40;20.90;56.20
27114;DHT22;14648;49.730;8.614;2022-09-09T14:15:07;20.90;56.40
27114;DHT22;14648;49.730;8.614;2022-09-09T14:17:35;21.00;55.90
27114;DHT22;14648;49.730;8.614;2022-09-09T14:20:03;21.10;55.40
27114;DHT22;14648;49.730;8.614;2022-09-09T14:22:34;21.10;55.20
27114;DHT22;14648;49.730;8.614;2022-09-09T14:25:01;21.10;55.50
27114;DHT22;14648;49.730;8.614;2022-09-09T14:27:27;21.10;55.40
27114;DHT22;14648;49.730;8.614;2022-09-09T14:29:53;21.20;55.20
27114;DHT22;14648;49.730;8.614;2022-09-09T14:32:20;21.30;55.30
27114;DHT22;14648;49.730;8.614;2022-09-09T14:34:46;21.30;55.30
27114;DHT22;14648;49.730;8.614;2022-09-09T14:37:15;21.40;55.10
27114;DHT22;14648;49.730;8.614;2022-09-09T14:39:42;21.40;54.90
27114;DHT22;14648;49.730;8.614;2022-09-09T14:42:10;21.60;54.30
27114;DHT22;14648;49.730;8.614;2022-09-09T14:44:37;21.50;54.40
27114;DHT22;14648;49.730;8.614;2022-09-09T14:47:04;21.50;54.20
27114;DHT22;14648;49.730;8.614;2022-09-09T14:49:30;21.40;54.10
27114;DHT22;14648;49.730;8.614;2022-09-09T14:51:56;21.40;54.20
27114;DHT22;14648;49.730;8.614;2022-09-09T14:54:22;21.30;54.20
27114;DHT22;14648;49.730;8.614;2022-09-09T14:56:48;21.30;54.20
27114;DHT22;14648;49.730;8.614;2022-09-09T14:59:14;21.30;54.20
27114;DHT22;14648;49.730;8.614;2022-09-09T15:01:40;21.20;54.10
27114;DHT22;14648;49.730;8.614;2022-09-09T15:04:06;21.20;54.30
27114;DHT22;14648;49.730;8.614;2022-09-09T15:06:35;21.20;54.40
27114;DHT22;14648;49.730;8.614;2022-09-09T15:09:05;21.20;54.60
27114;DHT22;14648;49.730;8.614;2022-09-09T15:11:34;21.30;54.60
27114;DHT22;14648;49.730;8.614;2022-09-09T15:14:07;21.30;54.70
27114;DHT22;14648;49.730;8.614;2022-09-09T15:16:34;21.20;54.50
27114;DHT22;14648;49.730;8.614;2022-09-09T15:19:02;21.20;54.70
27114;DHT22;14648;49.730;8.614;2022-09-09T15:21:33;21.20;54.90
27114;DHT22;14648;49.730;8.614;2022-09-09T15:24:00;21.20;55.10
27114;DHT22;14648;49.730;8.614;2022-09-09T15:26:26;21.20;55.20
27114;DHT22;14648;49.730;8.614;2022-09-09T15:28:52;21.10;55.40
27114;DHT22;14648;49.730;8.614;2022-09-09T15:31:24;21.10;55.50
27114;DHT22;14648;49.730;8.614;2022-09-09T15:33:53;21.10;56.30
27114;DHT22;14648;49.730;8.614;2022-09-09T15:36:33;21.10;55.70
27114;DHT22;14648;49.730;8.614;2022-09-09T15:39:05;21.10;55.80
27114;DHT22;14648;49.730;8.614;2022-09-09T15:41:38;21.00;55.50
27114;DHT22;14648;49.730;8.614;2022-09-09T15:44:05;20.90;55.40
27114;DHT22;14648;49.730;8.614;2022-09-09T15:51:41;20.70;55.20
27114;DHT22;14648;49.730;8.614;2022-09-09T15:54:10;20.60;55.00
27114;DHT22;14648;49.730;8.614;2022-09-09T15:56:37;20.50;55.10
27114;DHT22;14648;49.730;8.614;2022-09-09T15:59:04;20.50;55.30
27114;DHT22;14648;49.730;8.614;2022-09-09T16:01:31;20.40;55.00
27114;DHT22;14648;49.730;8.614;2022-09-09T16:03:58;20.40;54.80
27114;DHT22;14648;49.730;8.614;2022-09-09T16:06:26;20.30;54.60
27114;DHT22;14648;49.730;8.614;2022-09-09T16:08:55;20.30;54.50
27114;DHT22;14648;49.730;8.614;2022-09-09T16:11:25;20.30;54.50
27114;DHT22;14648;49.730;8.614;2022-09-09T16:14:01;20.20;54.60
27114;DHT22;14648;49.730;8.614;2022-09-09T16:16:30;20.20;54.60
27114;DHT22;14648;49.730;8.614;2022-09-09T16:18:58;20.20;54.80
27114;DHT22;14648;49.730;8.614;2022-09-09T16:21:33;20.20;54.90
27114;DHT22;14648;49.730;8.614;2022-09-09T16:24:02;20.20;55.00
27114;DHT22;14648;49.730;8.614;2022-09-09T16:26:31;20.20;55.10
27114;DHT22;14648;49.730;8.614;2022-09-09T16:28:59;20.20;55.00
27114;DHT22;14648;49.730;8.614;2022-09-09T16:31:28;20.10;55.10
27114;DHT22;14648;49.730;8.614;2022-09-09T16:33:54;20.10;54.90
27114;DHT22;14648;49.730;8.614;2022-09-09T16:36:24;20.10;54.80
27114;DHT22;14648;49.730;8.614;2022-09-09T16:38:54;20.00;54.60
27114;DHT22;14648;49.730;8.614;2022-09-09T16:41:23;20.00;54.40
27114;DHT22;14648;49.730;8.614;2022-09-09T16:44:09;20.00;54.30
27114;DHT22;14648;49.730;8.614;2022-09-09T16:46:40;19.90;54.30
27114;DHT22;14648;49.730;8.614;2022-09-09T16:49:09;19.90;54.50
27114;DHT22;14648;49.730;8.614;2022-09-09T16:51:45;19.80;54.60
27114;DHT22;14648;49.730;8.614;2022-09-09T16:54:13;19.80;54.90
27114;DHT22;14648;49.730;8.614;2022-09-09T16:56:42;19.70;55.00
27114;DHT22;14648;49.730;8.614;2022-09-09T16:59:11;19.70;55.20
27114;DHT22;14648;49.730;8.614;2022-09-09T17:01:40;19.70;55.30
27114;DHT22;14648;49.730;8.614;2022-09-09T17:04:15;19.70;55.40
27114;DHT22;14648;49.730;8.614;2022-09-09T17:06:52;19.70;55.60
27114;DHT22;14648;49.730;8.614;2022-09-09T17:09:19;19.60;55.50
27114;DHT22;14648;49.730;8.614;2022-09-09T17:11:46;19.70;55.70
27114;DHT22;14648;49.730;8.614;2022-09-09T17:14:16;19.60;55.70
27114;DHT22;14648;49.730;8.614;2022-09-09T17:16:43;19.60;55.90
27114;DHT22;14648;49.730;8.614;2022-09-09T17:19:09;19.60;56.10
27114;DHT22;14648;49.730;8.614;2022-09-09T17:21:36;19.50;56.20
27114;DHT22;14648;49.730;8.614;2022-09-09T17:24:02;19.50;56.30
27114;DHT22;14648;49.730;8.614;2022-09-09T17:26:31;19.50;56.40
27114;DHT22;14648;49.730;8.614;2022-09-09T17:28:59;19.40;56.20
27114;DHT22;14648;49.730;8.614;2022-09-09T17:31:27;19.40;56.10
27114;DHT22;14648;49.730;8.614;2022-09-09T17:33:55;19.30;56.10
27114;DHT22;14648;49.730;8.614;2022-09-09T17:36:25;19.30;56.10
27114;DHT22;14648;49.730;8.614;2022-09-09T17:38:54;19.30;56.10
27114;DHT22;14648;49.730;8.614;2022-09-09T17:41:23;19.30;56.20
27114;DHT22;14648;49.730;8.614;2022-09-09T17:43:52;19.30;56.20
27114;DHT22;14648;49.730;8.614;2022-09-09T17:46:20;19.30;56.20
27114;DHT22;14648;49.730;8.614;2022-09-09T17:48:58;19.30;56.20
27114;DHT22;14648;49.730;8.614;2022-09-09T17:51:27;19.30;56.20
27114;DHT22;14648;49.730;8.614;2022-09-09T17:54:00;19.40;56.20
27114;DHT22;14648;49.730;8.614;2022-09-09T17:56:30;19.40;56.30
27114;DHT22;14648;49.730;8.614;2022-09-09T17:59:01;19.40;56.30
27114;DHT22;14648;49.730;8.614;2022-09-09T18:01:30;19.40;56.20
27114;DHT22;14648;49.730;8.614;2022-09-09T18:04:03;19.40;57.10